Terminal Aerodrome Forecast
Issued by NWS Wakefield, VA

Home | Current Version | Previous Version | Text Only | Print | Product List | Glossary On
Versions: 1 2 3 4 5 6 7 8 9 10 11 12 13 14 15 16 17
000
FTUS41 KAKQ 031742
TAFECG
TAF
KECG 031742Z 0318/0418 08006KT P6SM BKN025 BKN040
     FM032100 19006KT 5SM -SHRA BKN030
     FM040300 21008KT 4SM -RA BKN025
     FM041300 27012G17KT P6SM SCT040=

USA.gov is the U.S. government's official web portal to all federal, state and local government web resources and services.